Airfield :
LOGIN :

Register | Disclaimer

   EN    FR    IT 

 










Legend :    VFR   Marginal VFR   IFR   Intensive IFR   Very Intensive IFR
Visi :
Ceiling :
>= 8 km
>= 3000ft
5 to 8 km
1000 to 3000 ft
1500m to 5 km
500 to 1000 ft
800 to 1500m
200 to 500 ft
< 800m
< 200 ft
Symbols :   Thunderstorms  Fog  Heavy snow  Heavy precipitations  Wind > 20 kt
SIGMETs :     Misc.  Thunderstorms  Icing  Turbulence  Mountain Waves  Volcanic Ashes







- Airport Elevation : 247 ft
- IATA code : BLL


EKBI - Billund

CURRENT METAR :
  • 181250Z AUTO 17011KT 120V200 9999NDV NCD 25/14 Q1008

EXPIRED METARs :
  • 181220Z AUTO 16013KT 130V200 9999NDV NCD 24/14 Q1008
  • 181150Z AUTO 17012KT 9999NDV NCD 24/13 Q1008
  • 181120Z AUTO 17010KT 130V200 9999NDV NCD 23/13 Q1008
  • 181050Z AUTO 16011KT 130V200 9999NDV NCD 23/13 Q1009
  • 181020Z AUTO 15009KT 120V190 9999NDV NCD 22/12 Q1009

TAF TAF EKBI
Valid from the 18 at 12:00 until the 19 at 12:00 UTC


181106Z 1812/1912 16010KT CAVOK
BECMG 1812/1814 22012KT
TEMPO 1814/1817 22018G28KT
TEMPO 1818/1822 BKN012
TEMPO 1900/1906 4000 BR
TEMPO 1906/1912 BKN012
No reported NOTAMs for that airfield.



MET'MAP, your aeronautical weather chart ! - Copyright ORBIFLY December 2007 - Disclaimer

ORBIFLY MET'MAP TEAM :

Programming & Development : Alexandra Zaïnal
Concept & Development : Baudouin d'Aumeries
Co-Development & Prog : Marc-Olivier Méhu
Technical & hardware support : Manuel Goepfert

Contact : metmap@orbifly.com




SOURCES & CREDITS :

   NOAA